createdAt,value
2022-11-20T00:00:24.556Z,11.8
2022-11-20T00:05:26.585Z,12.2
2022-11-20T00:10:28.560Z,12.1
2022-11-20T00:15:30.631Z,11.7
2022-11-20T00:20:32.697Z,12
2022-11-20T00:25:34.696Z,12
2022-11-20T00:30:36.875Z,13
2022-11-20T00:35:38.961Z,12.7
2022-11-20T00:40:41.025Z,12.6
2022-11-20T00:45:42.994Z,12.4
2022-11-20T00:50:45.047Z,12.4
2022-11-20T00:55:47.137Z,12.3
2022-11-20T01:00:49.189Z,12.2
2022-11-20T01:05:51.276Z,12.4
2022-11-20T01:10:53.284Z,12.9
2022-11-20T01:15:55.396Z,12.7
2022-11-20T01:20:57.696Z,13
2022-11-20T01:26:00.026Z,12.7
2022-11-20T01:31:02.131Z,13
2022-11-20T01:36:04.518Z,13.2
2022-11-20T01:41:06.563Z,12.5
2022-11-20T01:46:08.727Z,12.4
2022-11-20T01:51:10.748Z,13
2022-11-20T01:56:12.726Z,12.7
2022-11-20T02:01:15.132Z,13.3
2022-11-20T02:06:17.268Z,13.2
2022-11-20T02:11:19.297Z,12.2
2022-11-20T02:16:21.491Z,12
2022-11-20T02:21:23.598Z,12.4
2022-11-20T02:26:25.636Z,11.5
2022-11-20T02:31:27.951Z,11.7
2022-11-20T02:36:29.920Z,11.8
2022-11-20T02:41:31.989Z,11.4
2022-11-20T02:46:34.023Z,11.1
2022-11-20T02:51:36.065Z,11.1
2022-11-20T02:56:38.113Z,10.8
2022-11-20T03:01:40.213Z,12.6
2022-11-20T03:06:42.516Z,11.1
2022-11-20T03:11:44.566Z,10.8
2022-11-20T03:16:46.607Z,10.7
2022-11-20T03:21:48.701Z,10.3
2022-11-20T03:26:50.874Z,10.2
2022-11-20T03:31:53.166Z,10.5
2022-11-20T03:36:55.216Z,10.3
2022-11-20T03:41:57.271Z,9.9
2022-11-20T03:46:59.364Z,10.1
2022-11-20T03:52:01.436Z,9.9
2022-11-20T03:57:03.376Z,9.7
2022-11-20T04:02:05.418Z,9.5
2022-11-20T04:07:07.836Z,9.6
2022-11-20T04:12:10.364Z,10.3
2022-11-20T04:17:12.415Z,9.3
2022-11-20T04:22:14.455Z,9.2
2022-11-20T04:27:16.655Z,9.1
2022-11-20T04:32:18.811Z,9.2
2022-11-20T04:37:20.813Z,9.4
2022-11-20T04:42:22.960Z,9.6
2022-11-20T04:47:25.014Z,9.4
2022-11-20T04:52:26.985Z,9.3
2022-11-20T04:57:29.459Z,8.9
2022-11-20T05:02:31.757Z,9
2022-11-20T05:07:34.395Z,9.2
2022-11-20T05:12:37.044Z,9.4
2022-11-20T05:17:40.101Z,9.6
2022-11-20T05:22:42.140Z,9.5
2022-11-20T05:27:44.419Z,16.4
2022-11-20T05:32:46.809Z,9.7
2022-11-20T05:37:48.897Z,9.6
2022-11-20T05:42:50.923Z,9.3
2022-11-20T05:47:53.129Z,9.5
2022-11-20T05:52:55.328Z,9
2022-11-20T05:57:57.478Z,9.4
2022-11-20T06:02:59.533Z,9.3
2022-11-20T06:08:01.697Z,12.3
2022-11-20T06:13:03.723Z,9.4
2022-11-20T06:18:06.195Z,10.4
2022-11-20T06:23:08.349Z,9.8
2022-11-20T06:28:10.290Z,10.1
2022-11-20T06:33:12.614Z,11.8
2022-11-20T06:38:14.605Z,9.7
2022-11-20T06:43:16.590Z,9.8
2022-11-20T06:48:18.749Z,9.2
2022-11-20T06:53:20.713Z,9.2
2022-11-20T06:58:22.849Z,9.5
2022-11-20T07:03:25.093Z,9
2022-11-20T07:08:27.109Z,8.7
2022-11-20T07:13:29.206Z,9.9
2022-11-20T07:18:31.376Z,9.5
2022-11-20T07:23:33.434Z,9
2022-11-20T07:28:35.515Z,8.8
2022-11-20T07:33:37.648Z,10.2
2022-11-20T07:38:39.938Z,9.9
2022-11-20T07:43:42.615Z,10
2022-11-20T07:48:44.827Z,9.4
2022-11-20T07:53:46.850Z,9.9
2022-11-20T07:58:49.094Z,9.6
2022-11-20T08:03:51.049Z,10.4
2022-11-20T08:08:52.981Z,10
2022-11-20T08:13:55.019Z,10
2022-11-20T08:18:57.034Z,10
2022-11-20T08:23:59.040Z,10.4
2022-11-20T08:29:01.128Z,9.8
2022-11-20T08:34:10.310Z,9.7
2022-11-20T08:39:09.924Z,9.3
2022-11-20T08:44:14.855Z,9.5
2022-11-20T08:49:16.897Z,9.2
2022-11-20T08:54:19.010Z,8.9
2022-11-20T09:00:04.802Z,8.2
2022-11-20T09:04:29.250Z,7.9
2022-11-20T09:09:31.292Z,8.7
2022-11-20T09:14:33.308Z,8.2
2022-11-20T09:19:37.818Z,7.5
2022-11-20T09:24:40.097Z,7.6
2022-11-20T09:29:42.104Z,8.2
2022-11-20T09:34:44.258Z,8.3
2022-11-20T09:39:46.307Z,8.9
2022-11-20T09:44:48.355Z,8.6
2022-11-20T09:49:50.537Z,8.6
2022-11-20T09:54:52.552Z,8.3
2022-11-20T09:59:54.622Z,8.1
2022-11-20T10:04:56.736Z,8.4
2022-11-20T10:09:58.810Z,7.7
2022-11-20T10:15:00.841Z,7.7
2022-11-20T10:20:02.797Z,7.6
2022-11-20T10:25:04.788Z,7.7
2022-11-20T10:30:06.849Z,8.1
2022-11-20T10:35:09.072Z,8.1
2022-11-20T10:40:11.060Z,7.9
2022-11-20T10:45:12.974Z,7.9
2022-11-20T10:50:22.394Z,7.8
2022-11-20T10:55:25.106Z,8.8
2022-11-20T11:00:27.278Z,8.9
2022-11-20T11:05:29.291Z,9.2
2022-11-20T11:10:31.226Z,9.2
2022-11-20T11:15:33.295Z,8.8
2022-11-20T11:20:35.270Z,9.3
2022-11-20T11:25:37.439Z,9.1
2022-11-20T11:30:39.529Z,9.2
2022-11-20T11:35:41.640Z,8.7
2022-11-20T11:40:41.658Z,7.9
2022-11-20T11:45:44.486Z,9.1
2022-11-20T11:50:46.592Z,8.5
2022-11-20T11:55:48.545Z,8.7
2022-11-20T12:00:50.520Z,8
2022-11-20T12:05:52.543Z,8.6
2022-11-20T12:10:54.675Z,8.8
2022-11-20T12:15:56.591Z,8.4
2022-11-20T12:21:00.801Z,8.4
2022-11-20T12:26:02.645Z,8.9
2022-11-20T12:31:04.846Z,8.7
2022-11-20T12:36:08.025Z,8.6
2022-11-20T12:41:10.043Z,8.6
2022-11-20T12:46:12.214Z,8.5
2022-11-20T12:51:16.951Z,8.3
2022-11-20T12:56:19.079Z,8.8
2022-11-20T13:01:21.342Z,9.2
2022-11-20T13:06:23.860Z,9.8
2022-11-20T13:11:25.945Z,9.5
2022-11-20T13:16:27.993Z,10.2
2022-11-20T13:21:30.027Z,9.3
2022-11-20T13:26:34.249Z,9.1
2022-11-20T13:31:36.872Z,9.8
2022-11-20T13:36:40.055Z,10.1
2022-11-20T13:41:43.399Z,9.4
2022-11-20T13:46:45.907Z,9.8
2022-11-20T13:51:48.773Z,9.6
2022-11-20T13:56:52.297Z,9.7
2022-11-20T14:01:54.903Z,9.7
2022-11-20T14:07:00.308Z,13.2
2022-11-20T14:12:04.205Z,10.9
2022-11-20T14:17:06.371Z,11.1
2022-11-20T14:22:08.540Z,10.7
2022-11-20T14:27:10.869Z,11.9
2022-11-20T14:32:16.078Z,13.1
2022-11-20T14:37:18.290Z,11.8
2022-11-20T14:42:20.245Z,11.3
2022-11-20T14:47:22.199Z,22.5
2022-11-20T14:52:22.575Z,14.5
2022-11-20T15:02:27.017Z,14.4
2022-11-20T15:07:29.482Z,13.5
2022-11-20T15:12:31.960Z,14.2
2022-11-20T15:17:34.734Z,14.6
2022-11-20T15:22:37.822Z,14.4
2022-11-20T15:27:40.030Z,13.8
2022-11-20T15:32:42.313Z,14.5
2022-11-20T15:37:44.466Z,19.1
2022-11-20T15:42:58.208Z,18.8
2022-11-20T15:47:50.418Z,62.1
2022-11-20T15:52:52.494Z,25.8
2022-11-20T15:57:54.518Z,25.7
2022-11-20T16:02:56.554Z,24
2022-11-20T16:07:58.502Z,18
2022-11-20T16:13:00.580Z,17.5
2022-11-20T16:18:02.618Z,17.7
2022-11-20T16:23:04.815Z,18.2
2022-11-20T16:28:06.857Z,16.8
2022-11-20T16:33:09.108Z,17
2022-11-20T16:38:11.607Z,16.3
2022-11-20T16:43:13.640Z,19.5
2022-11-20T16:48:15.692Z,25.5
2022-11-20T16:53:17.730Z,20.1
2022-11-20T16:58:19.752Z,19
2022-11-20T17:03:22.058Z,17.5
2022-11-20T17:08:24.340Z,17.7
2022-11-20T17:13:26.294Z,16.5
2022-11-20T17:18:28.435Z,16.2
2022-11-20T17:23:30.416Z,16.5
2022-11-20T17:28:32.517Z,16.4
2022-11-20T17:33:34.573Z,57.3
2022-11-20T17:38:36.719Z,17.4
2022-11-20T17:43:39.678Z,17.1
2022-11-20T17:48:41.844Z,17.7
2022-11-20T17:53:43.957Z,17.9
2022-11-20T17:58:46.506Z,18.5
2022-11-20T18:03:48.624Z,19
2022-11-20T18:08:51.632Z,20.3
2022-11-20T18:13:53.879Z,20.2
2022-11-20T18:18:55.928Z,19.5
2022-11-20T18:23:59.393Z,19.5
2022-11-20T18:29:08.154Z,18.1
2022-11-20T18:34:03.798Z,17.9
2022-11-20T18:39:06.338Z,18
2022-11-20T18:44:08.560Z,18.2
2022-11-20T18:49:10.677Z,18
2022-11-20T18:54:12.921Z,21.2
2022-11-20T18:59:16.079Z,21.4
2022-11-20T19:04:19.206Z,20.9
2022-11-20T19:09:21.239Z,19.4
2022-11-20T19:14:25.633Z,19.5
2022-11-20T19:19:29.608Z,20.4
2022-11-20T19:24:32.033Z,20.5
2022-11-20T19:29:34.235Z,19.9
2022-11-20T19:34:36.464Z,19.2
2022-11-20T19:39:39.245Z,19.3
2022-11-20T19:44:41.654Z,19.8
2022-11-20T19:49:43.722Z,19.2
2022-11-20T19:54:45.778Z,19.5
2022-11-20T19:59:48.604Z,20.8
2022-11-20T20:04:51.571Z,20.2
2022-11-20T20:09:53.651Z,20.4
2022-11-20T20:14:55.701Z,21.1
2022-11-20T20:19:57.733Z,22.5
2022-11-20T20:24:59.766Z,22.9
2022-11-20T20:30:02.594Z,22.1
2022-11-20T20:35:04.823Z,22.3
2022-11-20T20:40:14.853Z,21.8
2022-11-20T20:45:07.446Z,20.8
2022-11-20T20:50:09.480Z,21.6
2022-11-20T20:55:11.571Z,21.2
2022-11-20T21:00:13.632Z,20.6
2022-11-20T21:05:15.849Z,22.2
2022-11-20T21:10:24.323Z,21.2
2022-11-20T21:15:26.539Z,22.5
2022-11-20T21:20:28.865Z,20.8
2022-11-20T21:25:31.887Z,19.9
2022-11-20T21:30:34.080Z,19
2022-11-20T21:35:36.331Z,19.2
2022-11-20T21:40:38.579Z,19.5
2022-11-20T21:45:43.448Z,19.4
2022-11-20T21:50:45.485Z,19.8
2022-11-20T21:55:49.990Z,19.3
2022-11-20T22:00:52.067Z,21.3
2022-11-20T22:05:54.337Z,23
2022-11-20T22:10:56.496Z,23.8
2022-11-20T22:16:02.240Z,23.9
2022-11-20T22:21:04.491Z,25
2022-11-20T22:26:06.886Z,45
2022-11-20T22:31:08.908Z,24.3
2022-11-20T22:36:11.297Z,24.2
2022-11-20T22:41:13.841Z,24.7
2022-11-20T22:46:15.841Z,25.1
2022-11-20T22:51:17.814Z,25.9
2022-11-20T22:56:20.171Z,25.3
2022-11-20T23:01:22.235Z,25.8
2022-11-20T23:06:24.995Z,26.2
2022-11-20T23:11:27.547Z,25.3
2022-11-20T23:16:29.882Z,24.6
2022-11-20T23:21:31.879Z,24
2022-11-20T23:26:33.924Z,23.1
2022-11-20T23:31:36.010Z,22
2022-11-20T23:36:38.208Z,22.3
2022-11-20T23:41:43.367Z,22.7
2022-11-20T23:46:45.619Z,21.7
2022-11-20T23:51:47.696Z,32.4
2022-11-20T23:56:48.151Z,21.6
